sensor_id;sensor_type;location;lat;lon;timestamp;P1;durP1;ratioP1;P2;durP2;ratioP2
22687;SDS011;11511;51.514;7.080;2023-04-24T00:00:30;0.90;;;0.70;;
22687;SDS011;11511;51.514;7.080;2023-04-24T00:02:56;1.05;;;0.90;;
22687;SDS011;11511;51.514;7.080;2023-04-24T00:05:23;0.60;;;0.60;;
22687;SDS011;11511;51.514;7.080;2023-04-24T00:07:49;1.83;;;0.80;;
22687;SDS011;11511;51.514;7.080;2023-04-24T00:10:17;1.77;;;0.88;;
22687;SDS011;11511;51.514;7.080;2023-04-24T00:12:43;2.00;;;0.80;;
22687;SDS011;11511;51.514;7.080;2023-04-24T00:15:09;1.73;;;0.80;;
22687;SDS011;11511;51.514;7.080;2023-04-24T00:17:36;1.30;;;0.80;;
22687;SDS011;11511;51.514;7.080;2023-04-24T00:20:02;1.73;;;0.90;;
22687;SDS011;11511;51.514;7.080;2023-04-24T00:22:29;1.17;;;1.10;;
22687;SDS011;11511;51.514;7.080;2023-04-24T00:24:55;2.28;;;0.80;;
22687;SDS011;11511;51.514;7.080;2023-04-24T00:27:21;1.60;;;1.13;;
22687;SDS011;11511;51.514;7.080;2023-04-24T00:29:46;1.27;;;1.10;;
22687;SDS011;11511;51.514;7.080;2023-04-24T00:32:12;3.35;;;1.20;;
22687;SDS011;11511;51.514;7.080;2023-04-24T00:34:38;1.23;;;1.00;;
22687;SDS011;11511;51.514;7.080;2023-04-24T00:37:03;2.15;;;1.00;;
22687;SDS011;11511;51.514;7.080;2023-04-24T00:39:28;2.05;;;1.17;;
22687;SDS011;11511;51.514;7.080;2023-04-24T00:41:54;1.85;;;1.20;;
22687;SDS011;11511;51.514;7.080;2023-04-24T00:44:20;5.43;;;1.30;;
22687;SDS011;11511;51.514;7.080;2023-04-24T00:46:45;1.83;;;1.08;;
22687;SDS011;11511;51.514;7.080;2023-04-24T00:49:11;1.55;;;1.38;;
22687;SDS011;11511;51.514;7.080;2023-04-24T00:51:37;1.20;;;1.10;;
22687;SDS011;11511;51.514;7.080;2023-04-24T00:54:02;1.40;;;1.30;;
22687;SDS011;11511;51.514;7.080;2023-04-24T00:56:28;1.40;;;1.30;;
22687;SDS011;11511;51.514;7.080;2023-04-24T00:58:53;3.47;;;1.42;;
22687;SDS011;11511;51.514;7.080;2023-04-24T01:01:19;2.05;;;1.50;;
22687;SDS011;11511;51.514;7.080;2023-04-24T01:03:46;2.95;;;1.60;;
22687;SDS011;11511;51.514;7.080;2023-04-24T01:06:14;1.83;;;1.40;;
22687;SDS011;11511;51.514;7.080;2023-04-24T01:08:40;1.75;;;1.40;;
22687;SDS011;11511;51.514;7.080;2023-04-24T01:11:06;3.75;;;1.73;;
22687;SDS011;11511;51.514;7.080;2023-04-24T01:13:32;1.50;;;1.40;;
22687;SDS011;11511;51.514;7.080;2023-04-24T01:15:58;1.48;;;1.38;;
22687;SDS011;11511;51.514;7.080;2023-04-24T01:18:25;3.38;;;1.70;;
22687;SDS011;11511;51.514;7.080;2023-04-24T01:20:53;2.55;;;1.70;;
22687;SDS011;11511;51.514;7.080;2023-04-24T01:23:21;2.95;;;1.60;;
22687;SDS011;11511;51.514;7.080;2023-04-24T01:25:47;2.80;;;1.90;;
22687;SDS011;11511;51.514;7.080;2023-04-24T01:28:13;3.75;;;1.80;;
22687;SDS011;11511;51.514;7.080;2023-04-24T01:30:39;4.57;;;2.10;;
22687;SDS011;11511;51.514;7.080;2023-04-24T01:33:05;3.05;;;2.08;;
22687;SDS011;11511;51.514;7.080;2023-04-24T01:35:30;3.83;;;2.15;;
22687;SDS011;11511;51.514;7.080;2023-04-24T01:37:56;2.42;;;1.88;;
22687;SDS011;11511;51.514;7.080;2023-04-24T01:40:21;3.63;;;2.10;;
22687;SDS011;11511;51.514;7.080;2023-04-24T01:42:47;3.17;;;2.20;;
22687;SDS011;11511;51.514;7.080;2023-04-24T01:45:12;3.83;;;1.80;;
22687;SDS011;11511;51.514;7.080;2023-04-24T01:47:39;5.57;;;2.25;;
22687;SDS011;11511;51.514;7.080;2023-04-24T01:50:05;3.20;;;2.20;;
22687;SDS011;11511;51.514;7.080;2023-04-24T01:52:32;3.58;;;2.33;;
22687;SDS011;11511;51.514;7.080;2023-04-24T01:55:01;4.90;;;3.20;;
22687;SDS011;11511;51.514;7.080;2023-04-24T01:57:27;4.95;;;3.28;;
22687;SDS011;11511;51.514;7.080;2023-04-24T01:59:55;5.75;;;3.67;;
22687;SDS011;11511;51.514;7.080;2023-04-24T02:02:20;5.28;;;3.95;;
22687;SDS011;11511;51.514;7.080;2023-04-24T02:04:46;5.32;;;4.30;;
22687;SDS011;11511;51.514;7.080;2023-04-24T02:07:11;4.25;;;3.85;;
22687;SDS011;11511;51.514;7.080;2023-04-24T02:09:37;5.43;;;3.60;;
22687;SDS011;11511;51.514;7.080;2023-04-24T02:12:02;4.25;;;3.80;;
22687;SDS011;11511;51.514;7.080;2023-04-24T02:14:27;4.72;;;3.55;;
22687;SDS011;11511;51.514;7.080;2023-04-24T02:16:53;5.97;;;3.72;;
22687;SDS011;11511;51.514;7.080;2023-04-24T02:19:19;6.43;;;4.22;;
22687;SDS011;11511;51.514;7.080;2023-04-24T02:21:44;8.40;;;5.10;;
22687;SDS011;11511;51.514;7.080;2023-04-24T02:24:10;6.72;;;4.88;;
22687;SDS011;11511;51.514;7.080;2023-04-24T02:26:35;10.07;;;5.38;;
22687;SDS011;11511;51.514;7.080;2023-04-24T02:29:00;6.18;;;4.70;;
22687;SDS011;11511;51.514;7.080;2023-04-24T02:31:26;8.13;;;5.22;;
22687;SDS011;11511;51.514;7.080;2023-04-24T02:33:51;8.30;;;5.93;;
22687;SDS011;11511;51.514;7.080;2023-04-24T02:36:17;8.55;;;5.13;;
22687;SDS011;11511;51.514;7.080;2023-04-24T02:38:42;9.57;;;5.82;;
22687;SDS011;11511;51.514;7.080;2023-04-24T02:41:07;8.77;;;6.15;;
22687;SDS011;11511;51.514;7.080;2023-04-24T02:43:32;10.00;;;6.05;;
22687;SDS011;11511;51.514;7.080;2023-04-24T02:45:58;10.02;;;6.18;;
22687;SDS011;11511;51.514;7.080;2023-04-24T02:48:24;8.50;;;6.85;;
22687;SDS011;11511;51.514;7.080;2023-04-24T02:50:49;10.35;;;7.18;;
22687;SDS011;11511;51.514;7.080;2023-04-24T02:53:15;14.25;;;6.78;;
22687;SDS011;11511;51.514;7.080;2023-04-24T02:55:41;11.13;;;7.78;;
22687;SDS011;11511;51.514;7.080;2023-04-24T02:58:06;12.32;;;7.57;;
22687;SDS011;11511;51.514;7.080;2023-04-24T03:00:31;13.80;;;8.13;;
22687;SDS011;11511;51.514;7.080;2023-04-24T03:02:56;14.77;;;7.65;;
22687;SDS011;11511;51.514;7.080;2023-04-24T03:05:22;10.80;;;7.85;;
22687;SDS011;11511;51.514;7.080;2023-04-24T03:07:47;14.18;;;8.77;;
22687;SDS011;11511;51.514;7.080;2023-04-24T03:10:13;14.70;;;8.80;;
22687;SDS011;11511;51.514;7.080;2023-04-24T03:12:38;15.40;;;8.75;;
22687;SDS011;11511;51.514;7.080;2023-04-24T03:15:04;10.73;;;8.02;;
22687;SDS011;11511;51.514;7.080;2023-04-24T03:17:30;18.48;;;8.80;;
22687;SDS011;11511;51.514;7.080;2023-04-24T03:19:55;14.30;;;9.23;;
22687;SDS011;11511;51.514;7.080;2023-04-24T03:22:20;15.65;;;9.07;;
22687;SDS011;11511;51.514;7.080;2023-04-24T03:24:46;14.88;;;9.40;;
22687;SDS011;11511;51.514;7.080;2023-04-24T03:27:11;12.50;;;8.90;;
22687;SDS011;11511;51.514;7.080;2023-04-24T03:29:36;15.93;;;9.20;;
22687;SDS011;11511;51.514;7.080;2023-04-24T03:32:02;18.33;;;10.07;;
22687;SDS011;11511;51.514;7.080;2023-04-24T03:34:27;17.20;;;10.35;;
22687;SDS011;11511;51.514;7.080;2023-04-24T03:36:53;12.75;;;9.57;;
22687;SDS011;11511;51.514;7.080;2023-04-24T03:39:18;18.17;;;10.50;;
22687;SDS011;11511;51.514;7.080;2023-04-24T03:41:43;17.02;;;10.30;;
22687;SDS011;11511;51.514;7.080;2023-04-24T03:44:09;17.35;;;9.40;;
22687;SDS011;11511;51.514;7.080;2023-04-24T03:46:34;18.60;;;10.57;;
22687;SDS011;11511;51.514;7.080;2023-04-24T03:49:00;15.65;;;9.25;;
22687;SDS011;11511;51.514;7.080;2023-04-24T03:51:25;15.05;;;10.55;;
22687;SDS011;11511;51.514;7.080;2023-04-24T03:53:52;17.48;;;10.02;;
22687;SDS011;11511;51.514;7.080;2023-04-24T03:56:18;20.30;;;11.23;;
22687;SDS011;11511;51.514;7.080;2023-04-24T03:58:43;17.23;;;11.18;;
22687;SDS011;11511;51.514;7.080;2023-04-24T04:01:08;15.18;;;10.18;;
22687;SDS011;11511;51.514;7.080;2023-04-24T04:03:33;20.77;;;10.88;;
22687;SDS011;11511;51.514;7.080;2023-04-24T04:05:59;14.95;;;9.85;;
22687;SDS011;11511;51.514;7.080;2023-04-24T04:08:24;13.57;;;10.27;;
22687;SDS011;11511;51.514;7.080;2023-04-24T04:10:49;16.08;;;10.65;;
22687;SDS011;11511;51.514;7.080;2023-04-24T04:13:15;16.00;;;10.00;;
22687;SDS011;11511;51.514;7.080;2023-04-24T04:15:40;12.80;;;8.85;;
22687;SDS011;11511;51.514;7.080;2023-04-24T04:18:06;16.08;;;9.85;;
22687;SDS011;11511;51.514;7.080;2023-04-24T04:20:31;14.93;;;9.73;;
22687;SDS011;11511;51.514;7.080;2023-04-24T04:23:00;15.73;;;10.18;;
22687;SDS011;11511;51.514;7.080;2023-04-24T04:25:27;15.25;;;9.23;;
22687;SDS011;11511;51.514;7.080;2023-04-24T04:27:52;16.33;;;9.10;;
22687;SDS011;11511;51.514;7.080;2023-04-24T04:30:18;13.77;;;9.57;;
22687;SDS011;11511;51.514;7.080;2023-04-24T04:32:45;13.40;;;9.23;;
22687;SDS011;11511;51.514;7.080;2023-04-24T04:35:11;13.32;;;9.38;;
22687;SDS011;11511;51.514;7.080;2023-04-24T04:37:36;12.98;;;9.82;;
22687;SDS011;11511;51.514;7.080;2023-04-24T04:40:02;14.77;;;8.77;;
22687;SDS011;11511;51.514;7.080;2023-04-24T04:42:31;14.20;;;9.25;;
22687;SDS011;11511;51.514;7.080;2023-04-24T04:44:59;16.52;;;9.10;;
22687;SDS011;11511;51.514;7.080;2023-04-24T04:47:25;19.42;;;10.05;;
22687;SDS011;11511;51.514;7.080;2023-04-24T04:49:51;13.40;;;9.15;;
22687;SDS011;11511;51.514;7.080;2023-04-24T04:52:17;16.15;;;9.45;;
22687;SDS011;11511;51.514;7.080;2023-04-24T04:54:43;16.33;;;9.00;;
22687;SDS011;11511;51.514;7.080;2023-04-24T04:57:10;11.82;;;9.10;;
22687;SDS011;11511;51.514;7.080;2023-04-24T04:59:35;13.85;;;8.43;;
22687;SDS011;11511;51.514;7.080;2023-04-24T05:02:00;16.52;;;9.02;;
22687;SDS011;11511;51.514;7.080;2023-04-24T05:04:26;16.10;;;9.40;;
22687;SDS011;11511;51.514;7.080;2023-04-24T05:06:52;12.90;;;8.63;;
22687;SDS011;11511;51.514;7.080;2023-04-24T05:09:17;13.52;;;9.02;;
22687;SDS011;11511;51.514;7.080;2023-04-24T05:11:43;13.48;;;8.80;;
22687;SDS011;11511;51.514;7.080;2023-04-24T05:14:08;14.25;;;8.57;;
22687;SDS011;11511;51.514;7.080;2023-04-24T05:16:33;14.75;;;8.75;;
22687;SDS011;11511;51.514;7.080;2023-04-24T05:18:59;12.95;;;8.02;;
22687;SDS011;11511;51.514;7.080;2023-04-24T05:21:24;11.57;;;8.10;;
22687;SDS011;11511;51.514;7.080;2023-04-24T05:23:50;13.57;;;8.13;;
22687;SDS011;11511;51.514;7.080;2023-04-24T05:26:15;10.65;;;7.07;;
22687;SDS011;11511;51.514;7.080;2023-04-24T05:28:41;11.98;;;7.80;;
22687;SDS011;11511;51.514;7.080;2023-04-24T05:31:06;11.82;;;7.20;;
22687;SDS011;11511;51.514;7.080;2023-04-24T05:33:31;10.52;;;7.72;;
22687;SDS011;11511;51.514;7.080;2023-04-24T05:35:57;12.60;;;7.95;;
22687;SDS011;11511;51.514;7.080;2023-04-24T05:38:22;11.48;;;8.23;;
22687;SDS011;11511;51.514;7.080;2023-04-24T05:40:48;11.25;;;7.00;;
22687;SDS011;11511;51.514;7.080;2023-04-24T05:43:13;11.75;;;8.20;;
22687;SDS011;11511;51.514;7.080;2023-04-24T05:49:00;13.88;;;9.73;;
22687;SDS011;11511;51.514;7.080;2023-04-24T05:51:26;13.38;;;9.35;;
22687;SDS011;11511;51.514;7.080;2023-04-24T05:53:52;16.50;;;9.60;;
22687;SDS011;11511;51.514;7.080;2023-04-24T05:56:17;13.98;;;9.95;;
22687;SDS011;11511;51.514;7.080;2023-04-24T05:58:43;14.48;;;9.70;;
22687;SDS011;11511;51.514;7.080;2023-04-24T06:01:09;15.20;;;10.25;;
22687;SDS011;11511;51.514;7.080;2023-04-24T06:03:37;13.80;;;10.50;;
22687;SDS011;11511;51.514;7.080;2023-04-24T06:06:03;14.20;;;10.07;;
22687;SDS011;11511;51.514;7.080;2023-04-24T06:08:28;15.63;;;9.75;;
22687;SDS011;11511;51.514;7.080;2023-04-24T06:10:54;14.75;;;10.45;;
22687;SDS011;11511;51.514;7.080;2023-04-24T06:13:19;13.60;;;9.77;;
22687;SDS011;11511;51.514;7.080;2023-04-24T06:15:45;16.45;;;10.00;;
22687;SDS011;11511;51.514;7.080;2023-04-24T06:18:10;13.48;;;9.75;;
22687;SDS011;11511;51.514;7.080;2023-04-24T06:20:35;13.05;;;8.57;;
22687;SDS011;11511;51.514;7.080;2023-04-24T06:23:01;10.80;;;8.07;;
22687;SDS011;11511;51.514;7.080;2023-04-24T06:25:26;11.88;;;8.20;;
22687;SDS011;11511;51.514;7.080;2023-04-24T06:27:52;10.27;;;8.00;;
22687;SDS011;11511;51.514;7.080;2023-04-24T06:30:18;10.98;;;8.45;;
22687;SDS011;11511;51.514;7.080;2023-04-24T06:32:43;11.48;;;8.30;;
22687;SDS011;11511;51.514;7.080;2023-04-24T06:35:09;11.57;;;7.50;;
22687;SDS011;11511;51.514;7.080;2023-04-24T06:37:36;9.70;;;7.82;;
22687;SDS011;11511;51.514;7.080;2023-04-24T06:40:01;9.35;;;7.20;;
22687;SDS011;11511;51.514;7.080;2023-04-24T06:42:27;9.23;;;6.90;;
22687;SDS011;11511;51.514;7.080;2023-04-24T06:44:53;9.70;;;7.22;;
22687;SDS011;11511;51.514;7.080;2023-04-24T06:47:18;9.70;;;7.28;;
22687;SDS011;11511;51.514;7.080;2023-04-24T06:49:43;10.50;;;7.93;;
22687;SDS011;11511;51.514;7.080;2023-04-24T06:52:08;13.60;;;8.85;;
22687;SDS011;11511;51.514;7.080;2023-04-24T06:54:34;8.73;;;6.82;;
22687;SDS011;11511;51.514;7.080;2023-04-24T06:56:59;10.30;;;7.47;;
22687;SDS011;11511;51.514;7.080;2023-04-24T06:59:28;11.15;;;7.65;;
22687;SDS011;11511;51.514;7.080;2023-04-24T07:01:54;11.25;;;7.55;;
22687;SDS011;11511;51.514;7.080;2023-04-24T07:04:21;8.35;;;7.05;;
22687;SDS011;11511;51.514;7.080;2023-04-24T07:06:46;12.52;;;6.70;;
22687;SDS011;11511;51.514;7.080;2023-04-24T07:09:12;9.13;;;6.63;;
22687;SDS011;11511;51.514;7.080;2023-04-24T07:11:42;10.10;;;7.00;;
22687;SDS011;11511;51.514;7.080;2023-04-24T07:14:07;11.30;;;6.47;;
22687;SDS011;11511;51.514;7.080;2023-04-24T07:16:33;9.05;;;6.65;;
22687;SDS011;11511;51.514;7.080;2023-04-24T07:18:58;11.75;;;6.72;;
22687;SDS011;11511;51.514;7.080;2023-04-24T07:21:23;8.02;;;6.30;;
22687;SDS011;11511;51.514;7.080;2023-04-24T07:23:49;7.95;;;6.20;;
22687;SDS011;11511;51.514;7.080;2023-04-24T07:26:15;8.65;;;5.53;;
22687;SDS011;11511;51.514;7.080;2023-04-24T07:28:40;7.50;;;4.75;;
22687;SDS011;11511;51.514;7.080;2023-04-24T07:31:08;6.70;;;4.63;;
22687;SDS011;11511;51.514;7.080;2023-04-24T07:33:33;5.50;;;4.43;;
22687;SDS011;11511;51.514;7.080;2023-04-24T07:36:01;6.50;;;4.13;;
22687;SDS011;11511;51.514;7.080;2023-04-24T07:38:29;5.15;;;4.25;;
22687;SDS011;11511;51.514;7.080;2023-04-24T07:40:55;4.72;;;3.70;;
22687;SDS011;11511;51.514;7.080;2023-04-24T07:43:20;4.70;;;3.80;;
22687;SDS011;11511;51.514;7.080;2023-04-24T07:45:46;5.13;;;3.88;;
22687;SDS011;11511;51.514;7.080;2023-04-24T07:48:11;4.47;;;3.85;;
22687;SDS011;11511;51.514;7.080;2023-04-24T07:50:39;7.13;;;4.15;;
22687;SDS011;11511;51.514;7.080;2023-04-24T07:53:05;4.45;;;3.63;;
22687;SDS011;11511;51.514;7.080;2023-04-24T07:55:30;6.53;;;3.67;;
22687;SDS011;11511;51.514;7.080;2023-04-24T07:57:56;4.90;;;3.92;;
22687;SDS011;11511;51.514;7.080;2023-04-24T08:00:21;5.88;;;3.47;;
22687;SDS011;11511;51.514;7.080;2023-04-24T08:02:46;3.55;;;2.92;;
22687;SDS011;11511;51.514;7.080;2023-04-24T08:05:12;3.65;;;2.97;;
22687;SDS011;11511;51.514;7.080;2023-04-24T08:07:37;2.47;;;1.88;;
22687;SDS011;11511;51.514;7.080;2023-04-24T08:10:03;2.28;;;1.52;;
22687;SDS011;11511;51.514;7.080;2023-04-24T08:15:51;1.45;;;0.90;;
22687;SDS011;11511;51.514;7.080;2023-04-24T08:18:16;1.17;;;0.93;;
22687;SDS011;11511;51.514;7.080;2023-04-24T08:20:41;0.90;;;0.90;;
22687;SDS011;11511;51.514;7.080;2023-04-24T08:23:06;1.67;;;0.80;;
22687;SDS011;11511;51.514;7.080;2023-04-24T08:25:32;1.02;;;1.00;;
22687;SDS011;11511;51.514;7.080;2023-04-24T08:27:57;2.90;;;1.15;;
22687;SDS011;11511;51.514;7.080;2023-04-24T08:30:23;1.20;;;1.10;;
22687;SDS011;11511;51.514;7.080;2023-04-24T08:32:48;2.47;;;1.42;;
22687;SDS011;11511;51.514;7.080;2023-04-24T08:35:13;2.13;;;1.70;;
22687;SDS011;11511;51.514;7.080;2023-04-24T08:37:39;2.33;;;1.70;;
22687;SDS011;11511;51.514;7.080;2023-04-24T08:40:28;2.40;;;1.55;;
22687;SDS011;11511;51.514;7.080;2023-04-24T08:42:56;1.60;;;1.50;;
22687;SDS011;11511;51.514;7.080;2023-04-24T08:45:22;1.70;;;1.60;;
22687;SDS011;11511;51.514;7.080;2023-04-24T08:47:48;1.90;;;1.77;;
22687;SDS011;11511;51.514;7.080;2023-04-24T08:50:14;2.00;;;1.90;;
22687;SDS011;11511;51.514;7.080;2023-04-24T08:52:40;3.60;;;2.17;;
22687;SDS011;11511;51.514;7.080;2023-04-24T08:55:07;3.75;;;2.60;;
22687;SDS011;11511;51.514;7.080;2023-04-24T08:57:32;2.75;;;2.55;;
22687;SDS011;11511;51.514;7.080;2023-04-24T08:59:58;2.83;;;2.53;;
22687;SDS011;11511;51.514;7.080;2023-04-24T09:02:25;4.85;;;3.70;;
22687;SDS011;11511;51.514;7.080;2023-04-24T09:04:51;4.75;;;4.35;;
22687;SDS011;11511;51.514;7.080;2023-04-24T09:07:17;7.05;;;5.80;;
22687;SDS011;11511;51.514;7.080;2023-04-24T09:09:44;6.20;;;5.57;;
22687;SDS011;11511;51.514;7.080;2023-04-24T09:12:10;8.32;;;5.28;;
22687;SDS011;11511;51.514;7.080;2023-04-24T09:14:36;6.28;;;4.57;;
22687;SDS011;11511;51.514;7.080;2023-04-24T09:17:07;7.13;;;4.60;;
22687;SDS011;11511;51.514;7.080;2023-04-24T09:19:33;7.10;;;6.28;;
22687;SDS011;11511;51.514;7.080;2023-04-24T09:21:58;8.50;;;5.47;;
22687;SDS011;11511;51.514;7.080;2023-04-24T09:24:23;9.27;;;5.50;;
22687;SDS011;11511;51.514;7.080;2023-04-24T09:26:57;6.68;;;5.35;;
22687;SDS011;11511;51.514;7.080;2023-04-24T09:29:23;8.20;;;6.32;;
22687;SDS011;11511;51.514;7.080;2023-04-24T09:31:49;7.43;;;5.55;;
22687;SDS011;11511;51.514;7.080;2023-04-24T09:34:14;7.75;;;5.15;;
22687;SDS011;11511;51.514;7.080;2023-04-24T09:36:50;6.03;;;5.00;;
22687;SDS011;11511;51.514;7.080;2023-04-24T09:39:16;5.60;;;4.93;;
22687;SDS011;11511;51.514;7.080;2023-04-24T09:41:51;5.53;;;4.40;;
22687;SDS011;11511;51.514;7.080;2023-04-24T09:44:19;4.45;;;3.22;;
22687;SDS011;11511;51.514;7.080;2023-04-24T09:46:57;5.07;;;3.80;;
22687;SDS011;11511;51.514;7.080;2023-04-24T09:49:24;5.38;;;4.05;;
22687;SDS011;11511;51.514;7.080;2023-04-24T09:52:07;7.57;;;4.38;;
22687;SDS011;11511;51.514;7.080;2023-04-24T09:54:36;6.88;;;4.65;;
22687;SDS011;11511;51.514;7.080;2023-04-24T09:57:02;5.20;;;4.07;;
22687;SDS011;11511;51.514;7.080;2023-04-24T09:59:28;6.78;;;4.00;;
22687;SDS011;11511;51.514;7.080;2023-04-24T10:05:24;7.78;;;3.95;;
22687;SDS011;11511;51.514;7.080;2023-04-24T10:07:51;5.10;;;4.40;;
22687;SDS011;11511;51.514;7.080;2023-04-24T10:10:22;5.68;;;3.97;;
22687;SDS011;11511;51.514;7.080;2023-04-24T10:12:47;6.07;;;3.92;;
22687;SDS011;11511;51.514;7.080;2023-04-24T10:15:13;7.07;;;4.00;;
22687;SDS011;11511;51.514;7.080;2023-04-24T10:17:41;6.55;;;4.05;;
22687;SDS011;11511;51.514;7.080;2023-04-24T10:20:08;9.50;;;5.93;;
22687;SDS011;11511;51.514;7.080;2023-04-24T10:22:35;7.88;;;5.65;;
22687;SDS011;11511;51.514;7.080;2023-04-24T10:25:02;9.23;;;5.47;;
22687;SDS011;11511;51.514;7.080;2023-04-24T10:27:31;9.10;;;6.22;;
22687;SDS011;11511;51.514;7.080;2023-04-24T10:29:57;9.60;;;6.50;;
22687;SDS011;11511;51.514;7.080;2023-04-24T10:32:25;9.88;;;7.07;;
22687;SDS011;11511;51.514;7.080;2023-04-24T10:34:51;11.48;;;7.20;;
22687;SDS011;11511;51.514;7.080;2023-04-24T10:37:16;12.07;;;7.72;;
22687;SDS011;11511;51.514;7.080;2023-04-24T10:39:42;11.80;;;7.78;;
22687;SDS011;11511;51.514;7.080;2023-04-24T10:42:17;11.55;;;7.47;;
22687;SDS011;11511;51.514;7.080;2023-04-24T10:44:42;11.77;;;7.68;;
22687;SDS011;11511;51.514;7.080;2023-04-24T10:47:12;11.93;;;7.10;;
22687;SDS011;11511;51.514;7.080;2023-04-24T10:49:38;12.60;;;6.25;;
22687;SDS011;11511;51.514;7.080;2023-04-24T10:52:05;20.42;;;7.68;;
22687;SDS011;11511;51.514;7.080;2023-04-24T10:54:36;10.57;;;6.50;;
22687;SDS011;11511;51.514;7.080;2023-04-24T10:59:45;14.35;;;6.80;;
22687;SDS011;11511;51.514;7.080;2023-04-24T11:02:13;15.13;;;8.20;;
22687;SDS011;11511;51.514;7.080;2023-04-24T11:04:40;19.40;;;8.13;;
22687;SDS011;11511;51.514;7.080;2023-04-24T11:07:05;19.20;;;7.28;;
22687;SDS011;11511;51.514;7.080;2023-04-24T11:09:31;11.98;;;6.60;;
22687;SDS011;11511;51.514;7.080;2023-04-24T11:12:07;13.98;;;6.50;;
22687;SDS011;11511;51.514;7.080;2023-04-24T11:17:28;16.38;;;7.55;;
22687;SDS011;11511;51.514;7.080;2023-04-24T11:19:54;15.73;;;6.78;;
22687;SDS011;11511;51.514;7.080;2023-04-24T11:22:26;14.98;;;6.63;;
22687;SDS011;11511;51.514;7.080;2023-04-24T11:24:56;12.65;;;6.72;;
22687;SDS011;11511;51.514;7.080;2023-04-24T11:27:21;13.00;;;6.78;;
22687;SDS011;11511;51.514;7.080;2023-04-24T11:34:54;13.93;;;6.20;;
22687;SDS011;11511;51.514;7.080;2023-04-24T11:40:49;12.32;;;6.15;;
22687;SDS011;11511;51.514;7.080;2023-04-24T11:43:14;13.35;;;6.10;;
22687;SDS011;11511;51.514;7.080;2023-04-24T11:45:47;17.98;;;5.30;;
22687;SDS011;11511;51.514;7.080;2023-04-24T11:48:18;16.48;;;6.47;;
22687;SDS011;11511;51.514;7.080;2023-04-24T11:50:46;13.10;;;6.30;;
22687;SDS011;11511;51.514;7.080;2023-04-24T11:53:11;13.35;;;5.78;;
22687;SDS011;11511;51.514;7.080;2023-04-24T11:55:49;18.90;;;7.45;;
22687;SDS011;11511;51.514;7.080;2023-04-24T11:58:15;14.05;;;6.07;;
22687;SDS011;11511;51.514;7.080;2023-04-24T12:00:55;11.45;;;5.18;;
22687;SDS011;11511;51.514;7.080;2023-04-24T12:03:22;11.98;;;5.35;;
22687;SDS011;11511;51.514;7.080;2023-04-24T12:05:47;17.60;;;5.18;;
22687;SDS011;11511;51.514;7.080;2023-04-24T12:08:12;12.27;;;4.85;;
22687;SDS011;11511;51.514;7.080;2023-04-24T12:10:52;8.68;;;3.92;;
22687;SDS011;11511;51.514;7.080;2023-04-24T12:13:17;5.68;;;3.30;;
22687;SDS011;11511;51.514;7.080;2023-04-24T12:15:42;8.40;;;3.63;;
22687;SDS011;11511;51.514;7.080;2023-04-24T12:18:08;13.18;;;3.95;;
22687;SDS011;11511;51.514;7.080;2023-04-24T12:20:37;7.07;;;3.00;;
22687;SDS011;11511;51.514;7.080;2023-04-24T12:23:05;9.52;;;3.15;;
22687;SDS011;11511;51.514;7.080;2023-04-24T12:25:31;7.20;;;3.42;;
22687;SDS011;11511;51.514;7.080;2023-04-24T12:33:04;8.98;;;3.40;;
22687;SDS011;11511;51.514;7.080;2023-04-24T12:35:30;9.00;;;3.22;;
22687;SDS011;11511;51.514;7.080;2023-04-24T12:38:08;8.60;;;3.58;;
22687;SDS011;11511;51.514;7.080;2023-04-24T12:40:34;11.20;;;3.72;;
22687;SDS011;11511;51.514;7.080;2023-04-24T12:43:00;9.05;;;4.10;;
22687;SDS011;11511;51.514;7.080;2023-04-24T12:45:26;7.90;;;3.70;;
22687;SDS011;11511;51.514;7.080;2023-04-24T12:47:53;5.50;;;3.30;;
22687;SDS011;11511;51.514;7.080;2023-04-24T12:50:18;7.47;;;2.95;;
22687;SDS011;11511;51.514;7.080;2023-04-24T12:52:44;9.90;;;3.15;;
22687;SDS011;11511;51.514;7.080;2023-04-24T12:55:10;7.60;;;2.53;;
22687;SDS011;11511;51.514;7.080;2023-04-24T12:57:37;4.20;;;2.08;;
22687;SDS011;11511;51.514;7.080;2023-04-24T13:00:05;5.88;;;2.20;;
22687;SDS011;11511;51.514;7.080;2023-04-24T13:02:31;5.78;;;2.00;;
22687;SDS011;11511;51.514;7.080;2023-04-24T13:04:57;4.30;;;2.05;;
22687;SDS011;11511;51.514;7.080;2023-04-24T13:07:24;5.10;;;1.90;;
22687;SDS011;11511;51.514;7.080;2023-04-24T13:09:50;6.53;;;2.10;;
22687;SDS011;11511;51.514;7.080;2023-04-24T13:12:16;6.18;;;2.70;;
22687;SDS011;11511;51.514;7.080;2023-04-24T13:14:42;5.97;;;2.80;;
22687;SDS011;11511;51.514;7.080;2023-04-24T13:17:07;8.18;;;3.10;;
22687;SDS011;11511;51.514;7.080;2023-04-24T13:22:27;5.65;;;2.85;;
22687;SDS011;11511;51.514;7.080;2023-04-24T13:24:53;10.63;;;3.30;;
22687;SDS011;11511;51.514;7.080;2023-04-24T13:27:18;4.07;;;2.90;;
22687;SDS011;11511;51.514;7.080;2023-04-24T13:29:43;7.75;;;3.20;;
22687;SDS011;11511;51.514;7.080;2023-04-24T13:32:09;5.78;;;2.25;;
22687;SDS011;11511;51.514;7.080;2023-04-24T13:34:34;5.38;;;2.20;;
22687;SDS011;11511;51.514;7.080;2023-04-24T13:37:00;4.75;;;2.00;;
22687;SDS011;11511;51.514;7.080;2023-04-24T13:39:26;6.65;;;2.15;;
22687;SDS011;11511;51.514;7.080;2023-04-24T13:41:52;6.38;;;2.50;;
22687;SDS011;11511;51.514;7.080;2023-04-24T13:44:18;4.60;;;2.22;;
22687;SDS011;11511;51.514;7.080;2023-04-24T13:46:45;3.90;;;2.00;;
22687;SDS011;11511;51.514;7.080;2023-04-24T13:49:13;4.40;;;2.15;;
22687;SDS011;11511;51.514;7.080;2023-04-24T13:51:39;7.63;;;2.38;;
22687;SDS011;11511;51.514;7.080;2023-04-24T13:54:05;5.10;;;1.92;;
22687;SDS011;11511;51.514;7.080;2023-04-24T13:56:30;5.90;;;2.15;;
22687;SDS011;11511;51.514;7.080;2023-04-24T13:58:56;3.72;;;2.20;;
22687;SDS011;11511;51.514;7.080;2023-04-24T14:01:21;7.50;;;2.30;;
22687;SDS011;11511;51.514;7.080;2023-04-24T14:03:52;5.43;;;2.55;;
22687;SDS011;11511;51.514;7.080;2023-04-24T14:06:18;4.35;;;2.15;;
22687;SDS011;11511;51.514;7.080;2023-04-24T14:08:48;6.13;;;2.50;;
22687;SDS011;11511;51.514;7.080;2023-04-24T14:11:13;3.80;;;2.20;;
22687;SDS011;11511;51.514;7.080;2023-04-24T14:13:40;4.20;;;1.90;;
22687;SDS011;11511;51.514;7.080;2023-04-24T14:16:07;6.15;;;2.20;;
22687;SDS011;11511;51.514;7.080;2023-04-24T14:18:32;2.63;;;1.85;;
22687;SDS011;11511;51.514;7.080;2023-04-24T14:20:58;4.05;;;1.77;;
22687;SDS011;11511;51.514;7.080;2023-04-24T14:23:24;4.85;;;1.80;;
22687;SDS011;11511;51.514;7.080;2023-04-24T14:25:49;6.78;;;1.50;;
22687;SDS011;11511;51.514;7.080;2023-04-24T14:28:17;2.78;;;1.95;;
22687;SDS011;11511;51.514;7.080;2023-04-24T14:30:44;2.67;;;1.80;;
22687;SDS011;11511;51.514;7.080;2023-04-24T14:33:10;2.90;;;2.00;;
22687;SDS011;11511;51.514;7.080;2023-04-24T14:35:35;6.20;;;2.40;;
22687;SDS011;11511;51.514;7.080;2023-04-24T14:38:01;4.40;;;2.30;;
22687;SDS011;11511;51.514;7.080;2023-04-24T14:40:28;5.32;;;2.13;;
22687;SDS011;11511;51.514;7.080;2023-04-24T14:42:53;2.80;;;1.92;;
22687;SDS011;11511;51.514;7.080;2023-04-24T14:45:18;4.10;;;2.50;;
22687;SDS011;11511;51.514;7.080;2023-04-24T14:47:44;5.90;;;2.80;;
22687;SDS011;11511;51.514;7.080;2023-04-24T14:50:10;6.65;;;3.47;;
22687;SDS011;11511;51.514;7.080;2023-04-24T14:52:37;4.95;;;3.22;;
22687;SDS011;11511;51.514;7.080;2023-04-24T14:55:02;7.05;;;3.03;;
22687;SDS011;11511;51.514;7.080;2023-04-24T14:57:28;4.68;;;3.28;;
22687;SDS011;11511;51.514;7.080;2023-04-24T14:59:53;7.35;;;3.58;;
22687;SDS011;11511;51.514;7.080;2023-04-24T15:02:18;5.78;;;3.45;;
22687;SDS011;11511;51.514;7.080;2023-04-24T15:04:44;6.93;;;3.58;;
22687;SDS011;11511;51.514;7.080;2023-04-24T15:07:09;5.40;;;3.45;;